CheckWX is a tool to help pilots better visualize weather data.  It is not intended as a substitute for an official pre-flight weather briefing.

12:18:01 UTC

KACY METAR
Atlantic City International Airport
Atlantic City, New Jersey, USA
Current

24 mins ago

KACY 221154Z 01007KT 10SM BKN120 06/M02 A3030 RMK AO2 SLP261 T00611017 10083 20061 51025
Observed
Feb-22 @ 11:54 UTC
Wind
  • 010° at 7 KTS
Visibility
10 SM
Flight Rules
VFR
Cloud Levels
  • Broken at 12,000' AGL
Temperature
C / 43°F
Dewpoint
-2°C / 28°F
Humidity
57%
Altimeter
30.3" Hg
Pressure
1026.1 hPa
Previous

1 hour ago

KACY 221054Z 34005KT 10SM OVC110 07/M02 A3028 RMK AO2 SLP253 T00671017
Observed
Feb-22 @ 10:54 UTC
Wind
  • 340° at 5 KTS
Visibility
10 SM
Flight Rules
VFR
Cloud Levels
  • Overcast at 11,000' AGL
Temperature
C / 45°F
Dewpoint
-2°C / 28°F
Humidity
53%
Altimeter
30.28" Hg
Pressure
1025.3 hPa
Previous

2 hours ago

KACY 220954Z 33006KT 10SM BKN110 06/M02 A3025 RMK AO2 SLP243 T00611017
Observed
Feb-22 @ 09:54 UTC
Wind
  • 330° at 6 KTS
Visibility
10 SM
Flight Rules
VFR
Cloud Levels
  • Broken at 11,000' AGL
Temperature
C / 43°F
Dewpoint
-2°C / 28°F
Humidity
57%
Altimeter
30.25" Hg
Pressure
1024.3 hPa